createdAt,value
2023-04-19T00:00:08.198Z,89.80
2023-04-19T00:02:36.152Z,89.80
2023-04-19T00:05:03.325Z,89.70
2023-04-19T00:07:30.327Z,89.80
2023-04-19T00:09:57.212Z,89.80
2023-04-19T00:12:24.166Z,89.90
2023-04-19T00:14:51.044Z,90.00
2023-04-19T00:17:18.096Z,90.10
2023-04-19T00:19:45.000Z,90.20
2023-04-19T00:22:12.212Z,90.20
2023-04-19T00:24:39.063Z,90.30
2023-04-19T00:27:05.921Z,90.30
2023-04-19T00:29:32.883Z,90.40
2023-04-19T00:31:59.776Z,90.60
2023-04-19T00:34:26.664Z,90.60
2023-04-19T00:36:56.834Z,90.70
2023-04-19T00:39:24.146Z,90.90
2023-04-19T00:41:51.014Z,91.00
2023-04-19T00:44:19.010Z,91.00
2023-04-19T00:46:46.011Z,91.40
2023-04-19T00:49:13.113Z,91.40
2023-04-19T00:51:40.059Z,91.40
2023-04-19T00:54:08.180Z,91.40
2023-04-19T00:56:35.797Z,91.60
2023-04-19T00:59:02.944Z,91.90
2023-04-19T01:01:31.636Z,91.90
2023-04-19T01:03:58.921Z,91.90
2023-04-19T01:06:28.118Z,91.90
2023-04-19T01:08:54.983Z,91.80
2023-04-19T01:11:26.266Z,91.70
2023-04-19T01:13:53.170Z,91.80
2023-04-19T01:16:20.149Z,91.60
2023-04-19T01:18:47.173Z,91.60
2023-04-19T01:21:14.106Z,91.60
2023-04-19T01:23:41.343Z,91.80
2023-04-19T01:26:08.282Z,91.60
2023-04-19T01:28:35.200Z,91.60
2023-04-19T01:31:02.222Z,91.70
2023-04-19T01:33:29.190Z,91.50
2023-04-19T01:35:56.129Z,91.70
2023-04-19T01:38:23.100Z,91.80
2023-04-19T01:40:50.003Z,91.90
2023-04-19T01:43:18.569Z,91.80
2023-04-19T01:45:45.979Z,91.80
2023-04-19T01:48:12.909Z,91.80
2023-04-19T01:50:39.827Z,91.80
2023-04-19T01:53:06.723Z,91.80
2023-04-19T01:55:33.698Z,91.80
2023-04-19T01:58:00.667Z,91.60
2023-04-19T02:00:28.792Z,91.80
2023-04-19T02:02:55.899Z,91.80
2023-04-19T02:05:22.999Z,91.80
2023-04-19T02:07:49.914Z,91.80
2023-04-19T02:10:16.953Z,91.90
2023-04-19T02:12:43.939Z,92.00
2023-04-19T02:15:11.056Z,92.00
2023-04-19T02:17:38.908Z,92.10
2023-04-19T02:20:08.484Z,92.20
2023-04-19T02:22:35.436Z,92.20
2023-04-19T02:25:02.426Z,92.20
2023-04-19T02:27:31.176Z,92.40
2023-04-19T02:29:58.113Z,92.40
2023-04-19T02:32:25.157Z,92.40
2023-04-19T02:34:52.068Z,92.40
2023-04-19T02:37:18.974Z,92.40
2023-04-19T02:39:46.304Z,92.40
2023-04-19T02:42:13.320Z,92.40
2023-04-19T02:44:40.263Z,92.40
2023-04-19T02:47:08.091Z,92.30
2023-04-19T02:49:37.014Z,92.30
2023-04-19T02:52:04.675Z,92.20
2023-04-19T02:54:33.842Z,92.10
2023-04-19T02:57:01.138Z,92.10
2023-04-19T02:59:28.258Z,92.00
2023-04-19T03:01:57.964Z,92.00
2023-04-19T03:04:25.723Z,92.10
2023-04-19T03:06:53.039Z,92.20
2023-04-19T03:09:20.347Z,92.10
2023-04-19T03:11:47.214Z,92.20
2023-04-19T03:14:14.359Z,92.10
2023-04-19T03:16:41.694Z,92.10
2023-04-19T03:19:09.398Z,92.20
2023-04-19T03:21:42.809Z,92.20
2023-04-19T03:24:09.753Z,92.30
2023-04-19T03:26:40.471Z,92.30
2023-04-19T03:29:07.806Z,92.30
2023-04-19T03:31:39.410Z,92.30
2023-04-19T03:34:08.242Z,92.30
2023-04-19T03:36:40.826Z,92.40
2023-04-19T03:39:08.300Z,92.40
2023-04-19T03:41:37.026Z,92.40
2023-04-19T03:44:24.244Z,92.40
2023-04-19T03:46:51.202Z,92.40
2023-04-19T03:49:22.820Z,92.40
2023-04-19T03:52:00.966Z,92.30
2023-04-19T03:54:28.216Z,92.30
2023-04-19T03:56:55.219Z,92.30
2023-04-19T03:59:22.357Z,92.30
2023-04-19T04:01:52.420Z,92.30
2023-04-19T04:04:19.703Z,92.40
2023-04-19T04:06:46.919Z,92.50
2023-04-19T04:09:16.719Z,92.40
2023-04-19T04:11:44.303Z,92.40
2023-04-19T04:14:11.698Z,92.50
2023-04-19T04:16:39.365Z,92.50
2023-04-19T04:19:07.446Z,92.60
2023-04-19T04:21:37.307Z,92.60
2023-04-19T04:24:07.810Z,92.70
2023-04-19T04:26:44.126Z,92.70
2023-04-19T04:29:23.328Z,92.70
2023-04-19T04:31:52.798Z,92.70
2023-04-19T04:34:24.587Z,92.70
2023-04-19T04:36:57.524Z,92.60
2023-04-19T04:39:25.021Z,92.60
2023-04-19T04:41:53.235Z,92.60
2023-04-19T04:44:22.664Z,92.50
2023-04-19T04:46:49.816Z,92.40
2023-04-19T04:49:22.640Z,92.30
2023-04-19T04:51:49.570Z,92.30
2023-04-19T04:54:17.413Z,92.20
2023-04-19T04:56:45.440Z,92.20
2023-04-19T04:59:12.516Z,92.40
2023-04-19T05:01:43.481Z,92.30
2023-04-19T05:04:10.761Z,92.10
2023-04-19T05:06:40.763Z,91.90
2023-04-19T05:09:09.483Z,91.90
2023-04-19T05:11:36.751Z,91.70
2023-04-19T05:14:04.498Z,91.60
2023-04-19T05:16:33.658Z,91.60
2023-04-19T05:19:01.069Z,91.40
2023-04-19T05:21:33.598Z,91.40
2023-04-19T05:24:02.997Z,91.40
2023-04-19T05:26:30.322Z,91.30
2023-04-19T05:28:57.234Z,91.30
2023-04-19T05:31:59.356Z,91.40
2023-04-19T05:34:30.485Z,91.30
2023-04-19T05:36:58.799Z,91.30
2023-04-19T05:39:26.404Z,91.30
2023-04-19T05:41:53.316Z,91.40
2023-04-19T05:44:20.323Z,91.40
2023-04-19T05:46:47.291Z,91.40
2023-04-19T05:49:19.250Z,91.40
2023-04-19T05:52:02.961Z,91.50
2023-04-19T05:54:36.087Z,91.50
2023-04-19T05:57:04.209Z,91.60
2023-04-19T05:59:31.288Z,91.60
2023-04-19T06:01:58.396Z,91.70
2023-04-19T06:04:25.703Z,91.70
2023-04-19T06:06:52.833Z,91.60
2023-04-19T06:09:19.817Z,91.60
2023-04-19T06:11:50.667Z,91.50
2023-04-19T06:14:18.448Z,91.50
2023-04-19T06:16:45.775Z,91.30
2023-04-19T06:19:13.484Z,91.30
2023-04-19T06:21:40.569Z,91.20
2023-04-19T06:24:07.944Z,91.20
2023-04-19T06:26:35.004Z,91.10
2023-04-19T06:29:02.019Z,91.00
2023-04-19T06:31:29.026Z,90.90
2023-04-19T06:33:56.034Z,91.00
2023-04-19T06:36:22.964Z,90.90
2023-04-19T06:38:50.316Z,90.70
2023-04-19T06:41:17.757Z,90.70
2023-04-19T06:43:44.926Z,90.70
2023-04-19T06:46:14.080Z,90.50
2023-04-19T06:48:41.819Z,89.10
2023-04-19T06:51:09.215Z,88.70
2023-04-19T06:53:36.434Z,87.90
2023-04-19T06:56:04.696Z,87.50
2023-04-19T06:58:34.541Z,86.70
2023-04-19T07:01:04.371Z,86.90
2023-04-19T07:03:31.607Z,86.20
2023-04-19T07:05:58.791Z,85.30
2023-04-19T07:08:35.049Z,85.50
2023-04-19T07:11:05.948Z,84.90
2023-04-19T07:13:32.846Z,84.60
2023-04-19T07:15:59.810Z,82.90
2023-04-19T07:18:26.894Z,82.40
2023-04-19T07:20:53.784Z,80.90
2023-04-19T07:23:20.670Z,80.60
2023-04-19T07:25:47.597Z,80.60
2023-04-19T07:28:15.900Z,80.30
2023-04-19T07:30:45.984Z,81.10
2023-04-19T07:33:13.024Z,78.70
2023-04-19T07:35:40.345Z,79.40
2023-04-19T07:38:07.362Z,80.10
2023-04-19T07:40:34.262Z,79.60
2023-04-19T07:43:01.147Z,79.10
2023-04-19T07:45:28.037Z,78.10
2023-04-19T07:47:54.945Z,77.10
2023-04-19T07:50:23.244Z,77.60
2023-04-19T07:52:50.226Z,76.50
2023-04-19T07:55:17.144Z,76.50
2023-04-19T07:57:48.107Z,75.70
2023-04-19T08:00:16.376Z,76.20
2023-04-19T08:02:47.743Z,76.30
2023-04-19T08:05:20.042Z,75.50
2023-04-19T08:07:47.159Z,75.30
2023-04-19T08:10:14.475Z,75.70
2023-04-19T08:12:50.678Z,74.40
2023-04-19T08:16:14.955Z,73.10
2023-04-19T08:18:15.380Z,72.50
2023-04-19T08:20:46.388Z,72.20
2023-04-19T08:23:21.519Z,72.00
2023-04-19T08:25:51.264Z,71.40
2023-04-19T08:28:19.023Z,71.00
2023-04-19T08:30:45.984Z,71.00
2023-04-19T08:33:12.901Z,69.40
2023-04-19T08:35:42.797Z,66.40
2023-04-19T08:38:09.981Z,64.80
2023-04-19T08:40:42.910Z,65.90
2023-04-19T08:43:09.868Z,66.60
2023-04-19T08:45:37.262Z,66.10
2023-04-19T08:48:06.356Z,65.60
2023-04-19T08:50:42.594Z,66.50
2023-04-19T08:53:24.614Z,65.70
2023-04-19T08:56:12.694Z,65.80
2023-04-19T08:59:03.946Z,67.30
2023-04-19T09:01:35.986Z,66.20
2023-04-19T09:04:26.212Z,64.00
2023-04-19T09:06:55.449Z,64.80
2023-04-19T09:11:58.175Z,66.00
2023-04-19T09:14:27.286Z,66.30
2023-04-19T09:16:54.295Z,67.10
2023-04-19T09:19:25.145Z,65.00
2023-04-19T09:21:54.541Z,66.70
2023-04-19T09:25:13.911Z,66.00
2023-04-19T09:27:29.280Z,66.90
2023-04-19T09:29:58.679Z,67.20
2023-04-19T09:32:27.032Z,68.00
2023-04-19T09:34:59.837Z,67.60
2023-04-19T09:39:57.053Z,66.10
2023-04-19T09:42:47.300Z,66.00
2023-04-19T09:47:41.120Z,67.40
2023-04-19T09:50:22.038Z,66.80
2023-04-19T09:52:52.866Z,67.60
2023-04-19T09:57:49.923Z,68.90
2023-04-19T10:00:17.033Z,69.20
2023-04-19T10:02:48.717Z,69.60
2023-04-19T10:05:21.311Z,69.50
2023-04-19T10:07:50.345Z,68.40
2023-04-19T10:10:20.784Z,67.50
2023-04-19T10:15:24.113Z,68.00
2023-04-19T10:17:51.645Z,67.70
2023-04-19T10:20:30.234Z,69.00
2023-04-19T10:22:57.497Z,68.40
2023-04-19T10:25:30.991Z,67.20
2023-04-19T10:27:58.573Z,67.20
2023-04-19T10:30:28.753Z,67.60
2023-04-19T10:33:02.863Z,66.90
2023-04-19T10:35:38.199Z,65.70
2023-04-19T10:38:07.838Z,65.70
2023-04-19T10:40:54.977Z,64.90
2023-04-19T10:43:29.262Z,63.40
2023-04-19T10:46:02.086Z,63.90
2023-04-19T10:48:33.418Z,65.50
2023-04-19T10:51:05.211Z,64.50
2023-04-19T10:53:45.400Z,62.60
2023-04-19T10:56:12.967Z,60.60
2023-04-19T10:59:01.896Z,60.60
2023-04-19T11:01:50.687Z,60.90
2023-04-19T11:04:23.257Z,58.90
2023-04-19T11:06:53.318Z,57.20
2023-04-19T11:09:35.409Z,58.00
2023-04-19T11:12:08.314Z,57.40
2023-04-19T11:14:40.846Z,55.30
2023-04-19T11:17:25.944Z,54.50
2023-04-19T11:20:02.191Z,56.20
2023-04-19T11:22:39.581Z,56.90
2023-04-19T11:25:20.894Z,56.60
2023-04-19T11:27:55.707Z,56.00
2023-04-19T11:30:29.513Z,54.50
2023-04-19T11:32:57.390Z,54.50
2023-04-19T11:35:27.318Z,54.90
2023-04-19T11:37:56.257Z,54.60
2023-04-19T11:40:26.127Z,54.70
2023-04-19T11:43:01.560Z,54.80
2023-04-19T11:45:34.780Z,54.90
2023-04-19T11:48:05.941Z,53.90
2023-04-19T11:50:45.710Z,53.60
2023-04-19T11:53:22.260Z,53.90
2023-04-19T11:55:51.597Z,53.30
2023-04-19T11:58:44.509Z,53.20
2023-04-19T12:01:16.843Z,52.80
2023-04-19T12:03:53.223Z,49.70
2023-04-19T12:06:29.204Z,50.90
2023-04-19T12:08:57.485Z,50.80
2023-04-19T12:11:42.693Z,50.30
2023-04-19T12:14:18.349Z,50.80
2023-04-19T12:16:46.122Z,50.00
2023-04-19T12:19:18.917Z,51.20
2023-04-19T12:21:46.946Z,50.10
2023-04-19T12:24:16.175Z,50.50
2023-04-19T12:26:57.322Z,49.50
2023-04-19T12:29:24.660Z,48.90
2023-04-19T12:31:51.553Z,49.40
2023-04-19T12:34:18.527Z,49.20
2023-04-19T12:36:45.668Z,47.90
2023-04-19T12:39:13.418Z,47.80
2023-04-19T12:41:40.463Z,48.20
2023-04-19T12:44:07.371Z,49.20
2023-04-19T12:46:34.408Z,49.00
2023-04-19T12:49:01.309Z,47.90
2023-04-19T12:51:28.242Z,48.40
2023-04-19T12:53:55.416Z,48.20
2023-04-19T12:56:22.310Z,47.90
2023-04-19T12:58:49.154Z,47.30
2023-04-19T13:01:16.167Z,46.90
2023-04-19T13:03:43.175Z,48.00
2023-04-19T13:06:13.444Z,46.90
2023-04-19T13:08:45.465Z,47.30
2023-04-19T13:11:14.739Z,48.20
2023-04-19T13:13:41.647Z,47.90
2023-04-19T13:16:08.625Z,47.50
2023-04-19T13:18:35.797Z,47.80
2023-04-19T13:21:02.813Z,48.80
2023-04-19T13:23:29.755Z,49.10
2023-04-19T13:25:56.655Z,49.80
2023-04-19T13:28:23.589Z,50.30
2023-04-19T13:30:50.523Z,50.30
2023-04-19T13:33:17.393Z,47.60
2023-04-19T13:35:45.066Z,47.50
2023-04-19T13:38:12.047Z,48.40
2023-04-19T13:40:38.978Z,48.70
2023-04-19T13:43:05.874Z,48.10
2023-04-19T13:45:32.771Z,48.90
2023-04-19T13:47:59.703Z,49.10
2023-04-19T13:50:26.620Z,48.50
2023-04-19T13:52:53.662Z,49.00
2023-04-19T13:55:20.747Z,48.90
2023-04-19T13:57:47.663Z,49.40
2023-04-19T14:00:15.204Z,49.90
2023-04-19T14:02:42.341Z,50.00
2023-04-19T14:05:09.737Z,50.30
2023-04-19T14:07:39.116Z,50.80
2023-04-19T14:10:07.270Z,51.60
2023-04-19T14:12:34.146Z,51.70
2023-04-19T14:15:01.293Z,51.90
2023-04-19T14:17:28.324Z,53.30
2023-04-19T14:19:56.351Z,53.10
2023-04-19T14:22:23.246Z,53.70
2023-04-19T14:24:50.318Z,54.10
2023-04-19T14:27:17.197Z,54.90
2023-04-19T14:29:44.097Z,55.30
2023-04-19T14:34:43.894Z,56.20
2023-04-19T14:37:10.853Z,56.90
2023-04-19T14:39:37.746Z,58.00
2023-04-19T14:42:04.859Z,59.00
2023-04-19T14:44:31.814Z,59.50
2023-04-19T14:46:58.690Z,59.90
2023-04-19T14:49:25.583Z,60.60
2023-04-19T14:51:52.885Z,62.40
2023-04-19T14:54:20.032Z,63.10
2023-04-19T14:56:47.007Z,64.50
2023-04-19T14:59:14.052Z,65.60
2023-04-19T15:01:41.102Z,69.30
2023-04-19T15:04:08.919Z,70.50
2023-04-19T15:06:36.476Z,71.70
2023-04-19T15:09:03.565Z,72.60
2023-04-19T15:11:30.613Z,73.80
2023-04-19T15:13:57.502Z,74.40
2023-04-19T15:16:24.570Z,74.80
2023-04-19T15:18:52.364Z,75.00
2023-04-19T15:21:22.917Z,76.60
2023-04-19T15:23:51.205Z,78.80
2023-04-19T15:26:18.127Z,82.10
2023-04-19T15:28:45.084Z,83.80
2023-04-19T15:31:12.049Z,84.40
2023-04-19T15:33:39.019Z,86.30
2023-04-19T15:36:06.245Z,86.20
2023-04-19T15:38:33.372Z,87.60
2023-04-19T15:41:01.398Z,88.60
2023-04-19T15:43:28.357Z,89.90
2023-04-19T15:45:55.512Z,90.30
2023-04-19T15:48:22.576Z,90.20
2023-04-19T15:50:49.673Z,91.00
2023-04-19T15:53:16.885Z,91.20
2023-04-19T15:55:44.252Z,91.30
2023-04-19T15:58:11.130Z,91.00
2023-04-19T16:00:38.012Z,91.40
2023-04-19T16:03:05.186Z,91.30
2023-04-19T16:05:32.139Z,91.40
2023-04-19T16:08:03.482Z,91.90
2023-04-19T16:10:30.647Z,91.90
2023-04-19T16:12:57.701Z,92.20
2023-04-19T16:15:24.709Z,92.20
2023-04-19T16:17:52.403Z,92.10
2023-04-19T16:20:20.567Z,92.20
2023-04-19T16:22:48.137Z,92.40
2023-04-19T16:25:16.104Z,92.90
2023-04-19T16:27:45.660Z,92.90
2023-04-19T16:30:14.031Z,92.90
2023-04-19T16:32:41.841Z,92.70
2023-04-19T16:35:10.085Z,92.60
2023-04-19T16:37:37.042Z,92.30
2023-04-19T16:40:08.690Z,92.10
2023-04-19T16:42:37.821Z,92.20
2023-04-19T16:45:06.272Z,92.00
2023-04-19T16:47:34.252Z,91.90
2023-04-19T16:50:02.422Z,91.90
2023-04-19T16:52:32.828Z,91.80
2023-04-19T16:55:00.068Z,91.50
2023-04-19T16:57:27.184Z,91.50
2023-04-19T16:59:54.112Z,91.40
2023-04-19T17:02:21.141Z,91.40
2023-04-19T17:04:48.274Z,91.30
2023-04-19T17:07:15.298Z,91.20
2023-04-19T17:09:42.181Z,91.00
2023-04-19T17:12:09.156Z,91.00
2023-04-19T17:14:36.100Z,90.70
2023-04-19T17:17:03.128Z,90.70
2023-04-19T17:19:30.150Z,90.60
2023-04-19T17:21:58.661Z,90.60
2023-04-19T17:24:25.547Z,90.50
2023-04-19T17:26:52.605Z,90.60
2023-04-19T17:29:19.637Z,90.60
2023-04-19T17:31:46.748Z,90.50
2023-04-19T17:34:13.719Z,90.40
2023-04-19T17:36:42.084Z,90.60
2023-04-19T17:39:09.667Z,90.40
2023-04-19T17:41:36.754Z,90.70
2023-04-19T17:44:03.670Z,90.70
2023-04-19T17:46:30.704Z,90.90
2023-04-19T17:48:57.600Z,91.00
2023-04-19T17:51:24.535Z,91.10
2023-04-19T17:53:51.744Z,91.30
2023-04-19T17:56:18.924Z,91.50
2023-04-19T17:58:49.369Z,91.50
2023-04-19T18:01:16.631Z,91.50
2023-04-19T18:03:44.076Z,91.80
2023-04-19T18:06:11.917Z,91.70
2023-04-19T18:08:38.863Z,91.70
2023-04-19T18:11:06.891Z,91.90
2023-04-19T18:13:33.800Z,91.90
2023-04-19T18:16:00.780Z,91.70
2023-04-19T18:18:27.695Z,91.70
2023-04-19T18:20:54.570Z,91.70
2023-04-19T18:23:21.621Z,91.70
2023-04-19T18:25:55.263Z,91.70
2023-04-19T18:28:22.403Z,91.60
2023-04-19T18:30:49.308Z,91.70
2023-04-19T18:33:16.205Z,91.70
2023-04-19T18:35:43.081Z,91.70
2023-04-19T18:38:10.121Z,91.70
2023-04-19T18:40:37.074Z,91.70
2023-04-19T18:43:03.982Z,91.60
2023-04-19T18:45:31.521Z,91.70
2023-04-19T18:48:01.283Z,91.80
2023-04-19T18:50:28.345Z,91.60
2023-04-19T18:52:55.294Z,91.70
2023-04-19T18:55:22.196Z,91.80
2023-04-19T18:57:49.095Z,91.90
2023-04-19T19:00:17.220Z,91.80
2023-04-19T19:02:44.993Z,91.80
2023-04-19T19:05:13.861Z,92.20
2023-04-19T19:07:41.958Z,91.70
2023-04-19T19:10:19.114Z,91.70
2023-04-19T19:12:49.497Z,91.60
2023-04-19T19:15:16.994Z,91.60
2023-04-19T19:17:48.557Z,91.60
2023-04-19T19:20:16.573Z,91.70
2023-04-19T19:22:43.594Z,91.50
2023-04-19T19:25:12.040Z,91.40
2023-04-19T19:27:39.080Z,91.30
2023-04-19T19:30:07.853Z,91.30
2023-04-19T19:32:34.907Z,91.20
2023-04-19T19:35:05.591Z,91.20
2023-04-19T19:37:36.903Z,91.20
2023-04-19T19:40:07.087Z,91.20
2023-04-19T19:42:39.291Z,91.10
2023-04-19T19:45:10.275Z,91.10
2023-04-19T19:47:43.374Z,91.20
2023-04-19T19:50:57.682Z,91.20
2023-04-19T19:53:01.449Z,91.20
2023-04-19T19:55:29.006Z,91.10
2023-04-19T20:02:56.827Z,91.30
2023-04-19T20:05:24.295Z,91.20
2023-04-19T20:10:21.413Z,91.50
2023-04-19T20:12:48.317Z,91.90
2023-04-19T20:15:15.384Z,91.80
2023-04-19T20:17:42.313Z,92.50
2023-04-19T20:20:11.114Z,92.50
2023-04-19T20:22:38.427Z,92.70
2023-04-19T20:25:05.861Z,93.00
2023-04-19T20:27:33.408Z,93.10
2023-04-19T20:30:00.855Z,93.10
2023-04-19T20:32:27.795Z,93.20
2023-04-19T20:34:54.772Z,93.20
2023-04-19T20:37:22.449Z,93.30
2023-04-19T20:39:49.324Z,93.40
2023-04-19T20:42:16.202Z,93.40
2023-04-19T20:44:43.076Z,93.40
2023-04-19T20:47:10.392Z,93.30
2023-04-19T20:49:37.268Z,93.30
2023-04-19T20:52:06.415Z,93.10
2023-04-19T20:54:34.160Z,93.20
2023-04-19T20:57:04.767Z,93.10
2023-04-19T20:59:31.848Z,93.40
2023-04-19T21:01:59.820Z,93.10
2023-04-19T21:04:26.952Z,93.10
2023-04-19T21:06:53.970Z,93.20
2023-04-19T21:09:21.147Z,93.10
2023-04-19T21:11:48.043Z,93.20
2023-04-19T21:14:14.936Z,93.60
2023-04-19T21:16:41.888Z,93.80
2023-04-19T21:19:08.770Z,94.10
2023-04-19T21:21:35.652Z,94.30
2023-04-19T21:24:02.589Z,94.40
2023-04-19T21:26:29.489Z,94.20
2023-04-19T21:28:56.354Z,94.20
2023-04-19T21:31:23.281Z,94.40
2023-04-19T21:33:50.189Z,94.50
2023-04-19T21:36:17.052Z,94.80
2023-04-19T21:38:43.965Z,94.80
2023-04-19T21:41:10.861Z,94.60
2023-04-19T21:43:37.736Z,94.70
2023-04-19T21:46:05.228Z,94.90
2023-04-19T21:48:32.454Z,94.70
2023-04-19T21:51:01.303Z,94.80
2023-04-19T21:53:28.176Z,94.80
2023-04-19T21:55:55.088Z,95.10
2023-04-19T21:58:21.954Z,94.80
2023-04-19T22:00:49.069Z,94.90
2023-04-19T22:03:16.190Z,95.00
2023-04-19T22:05:46.170Z,94.90
2023-04-19T22:08:13.282Z,95.10
2023-04-19T22:10:40.989Z,94.90
2023-04-19T22:13:08.675Z,94.90
2023-04-19T22:15:36.359Z,95.10
2023-04-19T22:18:03.949Z,95.10
2023-04-19T22:20:32.099Z,95.10
2023-04-19T22:22:58.999Z,95.00
2023-04-19T22:25:26.188Z,95.00
2023-04-19T22:27:53.059Z,95.00
2023-04-19T22:30:19.963Z,94.90
2023-04-19T22:32:46.922Z,95.10
2023-04-19T22:35:13.902Z,95.10
2023-04-19T22:37:40.819Z,95.00
2023-04-19T22:40:09.300Z,94.90
2023-04-19T22:42:37.065Z,94.90
2023-04-19T22:45:04.386Z,94.90
2023-04-19T22:47:32.950Z,94.90
2023-04-19T22:49:59.953Z,94.70
2023-04-19T22:52:27.921Z,94.80
2023-04-19T22:54:54.875Z,94.70
2023-04-19T22:57:21.755Z,94.80
2023-04-19T22:59:48.856Z,94.70
2023-04-19T23:02:15.793Z,94.80
2023-04-19T23:04:44.525Z,94.60
2023-04-19T23:07:11.801Z,94.60
2023-04-19T23:09:39.323Z,94.60
2023-04-19T23:12:06.994Z,94.70
2023-04-19T23:14:33.933Z,94.60
2023-04-19T23:17:02.657Z,94.90
2023-04-19T23:19:30.356Z,94.90
2023-04-19T23:21:57.257Z,94.80
2023-04-19T23:24:24.509Z,94.70
2023-04-19T23:26:51.395Z,94.90
2023-04-19T23:29:18.541Z,95.10
2023-04-19T23:31:45.766Z,94.90
2023-04-19T23:34:13.944Z,95.00
2023-04-19T23:36:40.895Z,94.90
2023-04-19T23:39:07.799Z,95.10
2023-04-19T23:41:34.673Z,95.00
2023-04-19T23:44:01.534Z,95.10
2023-04-19T23:46:28.485Z,95.10
2023-04-19T23:48:55.579Z,95.10
2023-04-19T23:51:22.458Z,95.20
2023-04-19T23:53:49.348Z,95.20
2023-04-19T23:56:16.265Z,95.20
2023-04-19T23:58:43.149Z,95.20
